sensor_id;sensor_type;location;lat;lon;timestamp;pressure;altitude;pressure_sealevel;temperature;humidity
26719;BME280;14326;50.794;6.060;2023-02-14T00:00:29;101507.69;;;1.39;100.00
26719;BME280;14326;50.794;6.060;2023-02-14T00:02:57;101502.44;;;1.39;100.00
26719;BME280;14326;50.794;6.060;2023-02-14T00:05:25;101508.91;;;1.33;100.00
26719;BME280;14326;50.794;6.060;2023-02-14T00:07:52;101494.78;;;1.31;100.00
26719;BME280;14326;50.794;6.060;2023-02-14T00:10:19;101508.78;;;1.31;100.00
26719;BME280;14326;50.794;6.060;2023-02-14T00:12:45;101509.25;;;1.26;100.00
26719;BME280;14326;50.794;6.060;2023-02-14T00:15:12;101503.56;;;1.43;100.00
26719;BME280;14326;50.794;6.060;2023-02-14T00:17:46;101496.75;;;1.45;100.00
26719;BME280;14326;50.794;6.060;2023-02-14T00:20:13;101504.47;;;1.43;100.00
26719;BME280;14326;50.794;6.060;2023-02-14T00:22:41;101498.56;;;1.34;100.00
26719;BME280;14326;50.794;6.060;2023-02-14T00:25:08;101507.66;;;1.28;100.00
26719;BME280;14326;50.794;6.060;2023-02-14T00:27:35;101500.78;;;1.18;100.00
26719;BME280;14326;50.794;6.060;2023-02-14T00:30:02;101493.97;;;1.20;100.00
26719;BME280;14326;50.794;6.060;2023-02-14T00:32:29;101508.66;;;1.18;100.00
26719;BME280;14326;50.794;6.060;2023-02-14T00:34:56;101498.16;;;1.18;100.00
26719;BME280;14326;50.794;6.060;2023-02-14T00:37:23;101503.31;;;1.16;100.00
26719;BME280;14326;50.794;6.060;2023-02-14T00:39:51;101506.84;;;1.17;100.00
26719;BME280;14326;50.794;6.060;2023-02-14T00:42:18;101509.56;;;1.18;100.00
26719;BME280;14326;50.794;6.060;2023-02-14T00:44:45;101499.22;;;1.20;100.00
26719;BME280;14326;50.794;6.060;2023-02-14T00:47:11;101499.53;;;1.13;100.00
26719;BME280;14326;50.794;6.060;2023-02-14T00:49:38;101495.31;;;1.15;100.00
26719;BME280;14326;50.794;6.060;2023-02-14T00:52:04;101490.44;;;1.31;100.00
26719;BME280;14326;50.794;6.060;2023-02-14T00:54:31;101495.78;;;1.21;100.00
26719;BME280;14326;50.794;6.060;2023-02-14T00:56:59;101491.66;;;1.13;100.00
26719;BME280;14326;50.794;6.060;2023-02-14T00:59:26;101498.75;;;1.14;100.00
26719;BME280;14326;50.794;6.060;2023-02-14T01:01:52;101491.91;;;1.04;100.00
26719;BME280;14326;50.794;6.060;2023-02-14T01:04:19;101500.28;;;1.00;100.00
26719;BME280;14326;50.794;6.060;2023-02-14T01:06:45;101490.25;;;0.95;100.00
26719;BME280;14326;50.794;6.060;2023-02-14T01:09:12;101489.72;;;0.99;100.00
26719;BME280;14326;50.794;6.060;2023-02-14T01:11:38;101483.44;;;0.97;100.00
26719;BME280;14326;50.794;6.060;2023-02-14T01:14:07;101482.88;;;1.01;100.00
26719;BME280;14326;50.794;6.060;2023-02-14T01:16:33;101472.63;;;1.04;100.00
26719;BME280;14326;50.794;6.060;2023-02-14T01:19:01;101483.22;;;0.94;100.00
26719;BME280;14326;50.794;6.060;2023-02-14T01:21:29;101482.31;;;0.93;100.00
26719;BME280;14326;50.794;6.060;2023-02-14T01:23:58;101471.81;;;0.93;100.00
26719;BME280;14326;50.794;6.060;2023-02-14T01:26:26;101471.25;;;0.97;100.00
26719;BME280;14326;50.794;6.060;2023-02-14T01:28:53;101471.25;;;0.97;100.00
26719;BME280;14326;50.794;6.060;2023-02-14T01:31:23;101470.22;;;0.95;100.00
26719;BME280;14326;50.794;6.060;2023-02-14T01:33:50;101472.47;;;0.91;100.00
26719;BME280;14326;50.794;6.060;2023-02-14T01:36:19;101474.63;;;0.85;100.00
26719;BME280;14326;50.794;6.060;2023-02-14T01:38:47;101469.72;;;0.77;100.00
26719;BME280;14326;50.794;6.060;2023-02-14T01:41:13;101467.91;;;0.76;100.00
26719;BME280;14326;50.794;6.060;2023-02-14T01:44:02;101472.31;;;0.77;100.00
26719;BME280;14326;50.794;6.060;2023-02-14T01:46:32;101466.38;;;0.68;100.00
26719;BME280;14326;50.794;6.060;2023-02-14T01:49:02;101461.94;;;0.67;100.00
26719;BME280;14326;50.794;6.060;2023-02-14T01:51:31;101465.72;;;0.82;100.00
26719;BME280;14326;50.794;6.060;2023-02-14T01:54:00;101461.53;;;0.85;100.00
26719;BME280;14326;50.794;6.060;2023-02-14T01:56:29;101465.72;;;0.82;100.00
26719;BME280;14326;50.794;6.060;2023-02-14T01:59:01;101467.97;;;0.66;100.00
26719;BME280;14326;50.794;6.060;2023-02-14T02:01:30;101472.53;;;0.69;100.00
26719;BME280;14326;50.794;6.060;2023-02-14T02:03:59;101463.69;;;0.78;100.00
26719;BME280;14326;50.794;6.060;2023-02-14T02:06:30;101458.66;;;0.70;100.00
26719;BME280;14326;50.794;6.060;2023-02-14T02:09:05;101468.78;;;0.77;100.00
26719;BME280;14326;50.794;6.060;2023-02-14T02:11:33;101467.22;;;0.79;100.00
26719;BME280;14326;50.794;6.060;2023-02-14T02:14:02;101466.06;;;0.75;100.00
26719;BME280;14326;50.794;6.060;2023-02-14T02:16:46;101464.44;;;0.66;100.00
26719;BME280;14326;50.794;6.060;2023-02-14T02:22:52;101463.94;;;0.60;100.00
26719;BME280;14326;50.794;6.060;2023-02-14T02:25:32;101459.28;;;0.56;100.00
26719;BME280;14326;50.794;6.060;2023-02-14T02:28:37;101465.56;;;0.58;100.00
26719;BME280;14326;50.794;6.060;2023-02-14T02:31:19;101468.06;;;0.56;100.00
26719;BME280;14326;50.794;6.060;2023-02-14T02:34:20;101458.94;;;0.51;100.00
26719;BME280;14326;50.794;6.060;2023-02-14T02:37:02;101462.09;;;0.47;100.00
26719;BME280;14326;50.794;6.060;2023-02-14T02:39:45;101444.94;;;0.51;100.00
26719;BME280;14326;50.794;6.060;2023-02-14T02:42:23;101449.06;;;0.59;100.00
26719;BME280;14326;50.794;6.060;2023-02-14T02:44:57;101443.44;;;0.54;100.00
26719;BME280;14326;50.794;6.060;2023-02-14T02:47:32;101449.81;;;0.46;100.00
26719;BME280;14326;50.794;6.060;2023-02-14T02:50:07;101454.56;;;0.40;100.00
26719;BME280;14326;50.794;6.060;2023-02-14T02:53:06;101451.63;;;0.47;100.00
26719;BME280;14326;50.794;6.060;2023-02-14T02:55:42;101446.19;;;0.56;100.00
26719;BME280;14326;50.794;6.060;2023-02-14T02:58:30;101451.63;;;0.47;100.00
26719;BME280;14326;50.794;6.060;2023-02-14T03:01:01;101449.56;;;0.43;100.00
26719;BME280;14326;50.794;6.060;2023-02-14T03:03:30;101451.38;;;0.44;100.00
26719;BME280;14326;50.794;6.060;2023-02-14T03:06:15;101442.00;;;0.36;100.00
26719;BME280;14326;50.794;6.060;2023-02-14T03:08:43;101447.00;;;0.33;100.00
26719;BME280;14326;50.794;6.060;2023-02-14T03:11:11;101453.09;;;0.44;100.00
26719;BME280;14326;50.794;6.060;2023-02-14T03:13:51;101443.22;;;0.51;100.00
26719;BME280;14326;50.794;6.060;2023-02-14T03:22:20;101445.72;;;0.50;100.00
26719;BME280;14326;50.794;6.060;2023-02-14T03:24:56;101444.19;;;0.41;100.00
26719;BME280;14326;50.794;6.060;2023-02-14T03:27:29;101439.88;;;0.42;100.00
26719;BME280;14326;50.794;6.060;2023-02-14T03:30:02;101435.94;;;0.47;100.00
26719;BME280;14326;50.794;6.060;2023-02-14T03:32:37;101437.94;;;0.39;100.00
26719;BME280;14326;50.794;6.060;2023-02-14T03:35:11;101444.69;;;0.26;100.00
26719;BME280;14326;50.794;6.060;2023-02-14T03:37:44;101451.56;;;0.14;100.00
26719;BME280;14326;50.794;6.060;2023-02-14T03:40:17;101445.06;;;0.09;100.00
26719;BME280;14326;50.794;6.060;2023-02-14T03:42:50;101450.16;;;0.07;100.00
26719;BME280;14326;50.794;6.060;2023-02-14T03:45:23;101447.56;;;0.07;100.00
26719;BME280;14326;50.794;6.060;2023-02-14T03:47:55;101449.88;;;0.14;100.00
26719;BME280;14326;50.794;6.060;2023-02-14T03:50:24;101455.41;;;0.29;100.00
26719;BME280;14326;50.794;6.060;2023-02-14T03:52:52;101453.63;;;0.18;100.00
26719;BME280;14326;50.794;6.060;2023-02-14T03:55:26;101452.13;;;0.10;100.00
26719;BME280;14326;50.794;6.060;2023-02-14T03:58:02;101450.66;;;0.13;100.00
26719;BME280;14326;50.794;6.060;2023-02-14T04:00:35;101444.28;;;0.10;100.00
26719;BME280;14326;50.794;6.060;2023-02-14T04:03:09;101442.44;;;0.09;100.00
26719;BME280;14326;50.794;6.060;2023-02-14T04:05:41;101448.25;;;0.05;100.00
26719;BME280;14326;50.794;6.060;2023-02-14T04:08:31;101448.25;;;0.05;100.00
26719;BME280;14326;50.794;6.060;2023-02-14T04:11:13;101440.56;;;-0.04;100.00
26719;BME280;14326;50.794;6.060;2023-02-14T04:14:00;101447.47;;;-0.05;100.00
26719;BME280;14326;50.794;6.060;2023-02-14T04:16:27;101446.16;;;0.00;100.00
26719;BME280;14326;50.794;6.060;2023-02-14T04:18:56;101445.91;;;-0.03;100.00
26719;BME280;14326;50.794;6.060;2023-02-14T04:21:41;101453.63;;;-0.04;100.00
26719;BME280;14326;50.794;6.060;2023-02-14T04:24:10;101443.59;;;-0.10;100.00
26719;BME280;14326;50.794;6.060;2023-02-14T04:26:41;101444.09;;;-0.04;100.00
26719;BME280;14326;50.794;6.060;2023-02-14T04:29:36;101448.81;;;-0.10;100.00
26719;BME280;14326;50.794;6.060;2023-02-14T04:32:11;101449.38;;;-0.14;100.00
26719;BME280;14326;50.794;6.060;2023-02-14T04:34:44;101453.56;;;-0.16;100.00
26719;BME280;14326;50.794;6.060;2023-02-14T04:37:19;101444.16;;;-0.14;100.00
26719;BME280;14326;50.794;6.060;2023-02-14T04:39:58;101436.53;;;-0.11;100.00
26719;BME280;14326;50.794;6.060;2023-02-14T04:42:32;101446.75;;;-0.14;100.00
26719;BME280;14326;50.794;6.060;2023-02-14T04:45:10;101437.63;;;-0.19;100.00
26719;BME280;14326;50.794;6.060;2023-02-14T04:47:41;101440.13;;;0.02;100.00
26719;BME280;14326;50.794;6.060;2023-02-14T04:50:18;101437.56;;;-0.09;100.00
26719;BME280;14326;50.794;6.060;2023-02-14T04:52:55;101436.78;;;-0.08;100.00
26719;BME280;14326;50.794;6.060;2023-02-14T04:55:29;101431.31;;;-0.11;100.00
26719;BME280;14326;50.794;6.060;2023-02-14T04:58:08;101429.97;;;-0.06;100.00
26719;BME280;14326;50.794;6.060;2023-02-14T05:00:41;101427.66;;;-0.13;100.00
26719;BME280;14326;50.794;6.060;2023-02-14T05:03:15;101426.13;;;-0.21;100.00
26719;BME280;14326;50.794;6.060;2023-02-14T05:05:42;101421.94;;;-0.19;100.00
26719;BME280;14326;50.794;6.060;2023-02-14T05:08:08;101417.69;;;-0.07;100.00
26719;BME280;14326;50.794;6.060;2023-02-14T05:10:35;101415.88;;;-0.08;100.00
26719;BME280;14326;50.794;6.060;2023-02-14T05:13:03;101418.34;;;-0.09;100.00
26719;BME280;14326;50.794;6.060;2023-02-14T05:15:30;101419.50;;;-0.06;100.00
26719;BME280;14326;50.794;6.060;2023-02-14T05:17:56;101413.53;;;-0.15;100.00
26719;BME280;14326;50.794;6.060;2023-02-14T05:20:27;101413.97;;;-0.20;100.00
26719;BME280;14326;50.794;6.060;2023-02-14T05:22:53;101412.69;;;-0.25;100.00
26719;BME280;14326;50.794;6.060;2023-02-14T05:25:20;101406.41;;;-0.27;100.00
26719;BME280;14326;50.794;6.060;2023-02-14T05:27:47;101409.66;;;-0.20;100.00
26719;BME280;14326;50.794;6.060;2023-02-14T05:30:15;101409.88;;;-0.17;100.00
26719;BME280;14326;50.794;6.060;2023-02-14T05:32:42;101401.69;;;-0.21;100.00
26719;BME280;14326;50.794;6.060;2023-02-14T05:35:09;101406.91;;;-0.21;100.00
26719;BME280;14326;50.794;6.060;2023-02-14T05:37:36;101413.84;;;-0.22;100.00
26719;BME280;14326;50.794;6.060;2023-02-14T05:40:03;101407.41;;;-0.15;100.00
26719;BME280;14326;50.794;6.060;2023-02-14T05:42:31;101410.81;;;-0.16;100.00
26719;BME280;14326;50.794;6.060;2023-02-14T05:44:58;101403.03;;;-0.26;100.00
26719;BME280;14326;50.794;6.060;2023-02-14T05:47:26;101394.56;;;-0.34;100.00
26719;BME280;14326;50.794;6.060;2023-02-14T05:49:52;101394.81;;;-0.31;100.00
26719;BME280;14326;50.794;6.060;2023-02-14T05:52:19;101398.41;;;-0.19;100.00
26719;BME280;14326;50.794;6.060;2023-02-14T05:54:45;101401.19;;;-0.27;100.00
26719;BME280;14326;50.794;6.060;2023-02-14T05:57:12;101405.78;;;-0.35;100.00
26719;BME280;14326;50.794;6.060;2023-02-14T05:59:39;101405.28;;;-0.41;100.00
26719;BME280;14326;50.794;6.060;2023-02-14T06:02:05;101406.09;;;-0.42;100.00
26719;BME280;14326;50.794;6.060;2023-02-14T06:04:33;101408.31;;;-0.47;100.00
26719;BME280;14326;50.794;6.060;2023-02-14T06:07:00;101416.28;;;-0.45;100.00
26719;BME280;14326;50.794;6.060;2023-02-14T06:09:26;101407.69;;;-0.44;100.00
26719;BME280;14326;50.794;6.060;2023-02-14T06:11:53;101409.44;;;-0.33;100.00
26719;BME280;14326;50.794;6.060;2023-02-14T06:14:20;101411.78;;;-0.26;100.00
26719;BME280;14326;50.794;6.060;2023-02-14T06:16:46;101412.56;;;-0.27;100.00
26719;BME280;14326;50.794;6.060;2023-02-14T06:19:13;101411.69;;;-0.37;100.00
26719;BME280;14326;50.794;6.060;2023-02-14T06:21:41;101420.47;;;-0.37;100.00
26719;BME280;14326;50.794;6.060;2023-02-14T06:24:07;101416.78;;;-0.39;100.00
26719;BME280;14326;50.794;6.060;2023-02-14T06:26:34;101418.06;;;-0.34;100.00
26719;BME280;14326;50.794;6.060;2023-02-14T06:29:01;101420.03;;;-0.31;100.00
26719;BME280;14326;50.794;6.060;2023-02-14T06:31:28;101418.38;;;-0.41;100.00
26719;BME280;14326;50.794;6.060;2023-02-14T06:33:55;101417.09;;;-0.46;100.00
26719;BME280;14326;50.794;6.060;2023-02-14T06:36:22;101414.72;;;-0.43;100.00
26719;BME280;14326;50.794;6.060;2023-02-14T06:38:50;101414.72;;;-0.43;100.00
26719;BME280;14326;50.794;6.060;2023-02-14T06:41:17;101417.22;;;-0.45;100.00
26719;BME280;14326;50.794;6.060;2023-02-14T06:43:44;101414.25;;;-0.49;100.00
26719;BME280;14326;50.794;6.060;2023-02-14T06:46:12;101411.63;;;-0.49;100.00
26719;BME280;14326;50.794;6.060;2023-02-14T06:48:39;101420.13;;;-0.52;100.00
26719;BME280;14326;50.794;6.060;2023-02-14T06:51:06;101428.16;;;-0.38;100.00
26719;BME280;14326;50.794;6.060;2023-02-14T06:53:33;101417.91;;;-0.25;100.00
26719;BME280;14326;50.794;6.060;2023-02-14T06:56:01;101417.91;;;-0.25;100.00
26719;BME280;14326;50.794;6.060;2023-02-14T06:58:28;101417.78;;;-0.27;100.00
26719;BME280;14326;50.794;6.060;2023-02-14T07:00:55;101416.50;;;-0.32;100.00
26719;BME280;14326;50.794;6.060;2023-02-14T07:03:22;101417.06;;;-0.36;100.00
26719;BME280;14326;50.794;6.060;2023-02-14T07:05:48;101424.78;;;-0.37;100.00
26719;BME280;14326;50.794;6.060;2023-02-14T07:08:15;101425.69;;;-0.37;100.00
26719;BME280;14326;50.794;6.060;2023-02-14T07:10:42;101424.91;;;-0.36;100.00
26719;BME280;14326;50.794;6.060;2023-02-14T07:13:10;101422.25;;;-0.26;100.00
26719;BME280;14326;50.794;6.060;2023-02-14T07:15:36;101425.50;;;-0.28;100.00
26719;BME280;14326;50.794;6.060;2023-02-14T07:18:03;101422.38;;;-0.24;100.00
26719;BME280;14326;50.794;6.060;2023-02-14T07:20:32;101424.97;;;-0.24;100.00
26719;BME280;14326;50.794;6.060;2023-02-14T07:22:59;101424.44;;;-0.20;100.00
26719;BME280;14326;50.794;6.060;2023-02-14T07:25:26;101416.28;;;-0.13;100.00
26719;BME280;14326;50.794;6.060;2023-02-14T07:27:53;101424.63;;;-0.07;100.00
26719;BME280;14326;50.794;6.060;2023-02-14T07:30:21;101421.59;;;-0.02;100.00
26719;BME280;14326;50.794;6.060;2023-02-14T07:32:48;101420.69;;;-0.02;100.00
26719;BME280;14326;50.794;6.060;2023-02-14T07:35:15;101407.59;;;0.20;100.00
26719;BME280;14326;50.794;6.060;2023-02-14T07:37:41;101404.41;;;1.49;100.00
26719;BME280;14326;50.794;6.060;2023-02-14T07:40:09;101404.78;;;2.89;100.00
26719;BME280;14326;50.794;6.060;2023-02-14T07:42:35;101402.88;;;3.92;94.07
26719;BME280;14326;50.794;6.060;2023-02-14T07:45:02;101391.25;;;4.86;88.20
26719;BME280;14326;50.794;6.060;2023-02-14T07:47:32;101392.09;;;5.75;83.02
26719;BME280;14326;50.794;6.060;2023-02-14T07:49:59;101385.84;;;6.69;76.94
26719;BME280;14326;50.794;6.060;2023-02-14T07:52:26;101390.63;;;7.10;74.21
26719;BME280;14326;50.794;6.060;2023-02-14T07:54:52;101386.53;;;7.50;69.47
26719;BME280;14326;50.794;6.060;2023-02-14T07:57:19;101390.38;;;7.57;70.89
26719;BME280;14326;50.794;6.060;2023-02-14T07:59:45;101383.69;;;8.00;68.63
26719;BME280;14326;50.794;6.060;2023-02-14T08:02:12;101382.53;;;8.69;65.29
26719;BME280;14326;50.794;6.060;2023-02-14T08:04:40;101383.72;;;8.96;63.86
26719;BME280;14326;50.794;6.060;2023-02-14T08:07:06;101377.88;;;8.84;65.17
26719;BME280;14326;50.794;6.060;2023-02-14T08:09:33;101384.47;;;9.34;64.79
26719;BME280;14326;50.794;6.060;2023-02-14T08:12:00;101377.97;;;9.69;62.25
26719;BME280;14326;50.794;6.060;2023-02-14T08:14:44;101378.31;;;10.21;58.94
26719;BME280;14326;50.794;6.060;2023-02-14T08:17:10;101377.75;;;10.07;61.27
26719;BME280;14326;50.794;6.060;2023-02-14T08:19:38;101376.94;;;10.54;59.48
26719;BME280;14326;50.794;6.060;2023-02-14T08:22:08;101379.50;;;10.51;60.25
26719;BME280;14326;50.794;6.060;2023-02-14T08:24:35;101378.59;;;10.75;59.51
26719;BME280;14326;50.794;6.060;2023-02-14T08:27:02;101378.00;;;11.07;56.69
26719;BME280;14326;50.794;6.060;2023-02-14T08:29:28;101386.09;;;11.10;57.33
26719;BME280;14326;50.794;6.060;2023-02-14T08:31:55;101378.19;;;11.38;55.96
26719;BME280;14326;50.794;6.060;2023-02-14T08:34:24;101374.13;;;11.49;56.34
26719;BME280;14326;50.794;6.060;2023-02-14T08:36:51;101375.59;;;11.67;57.14
26719;BME280;14326;50.794;6.060;2023-02-14T08:39:19;101381.28;;;11.76;57.00
26719;BME280;14326;50.794;6.060;2023-02-14T08:41:45;101380.34;;;12.02;54.95
26719;BME280;14326;50.794;6.060;2023-02-14T08:44:12;101381.47;;;11.04;58.67
26719;BME280;14326;50.794;6.060;2023-02-14T08:46:41;101386.28;;;10.67;62.74
26719;BME280;14326;50.794;6.060;2023-02-14T08:49:08;101381.72;;;10.17;68.47
26719;BME280;14326;50.794;6.060;2023-02-14T08:51:35;101378.38;;;9.57;71.61
26719;BME280;14326;50.794;6.060;2023-02-14T08:54:02;101388.63;;;9.07;74.81
26719;BME280;14326;50.794;6.060;2023-02-14T08:56:30;101386.16;;;8.71;75.24
26719;BME280;14326;50.794;6.060;2023-02-14T08:58:57;101385.81;;;8.27;78.87
26719;BME280;14326;50.794;6.060;2023-02-14T09:01:23;101391.94;;;8.06;83.08
26719;BME280;14326;50.794;6.060;2023-02-14T09:03:50;101396.59;;;7.75;85.77
26719;BME280;14326;50.794;6.060;2023-02-14T09:06:17;101399.31;;;7.59;88.00
26719;BME280;14326;50.794;6.060;2023-02-14T09:08:44;101389.84;;;7.46;89.09
26719;BME280;14326;50.794;6.060;2023-02-14T09:11:12;101384.34;;;7.42;88.86
26719;BME280;14326;50.794;6.060;2023-02-14T09:13:41;101385.38;;;7.45;88.65
26719;BME280;14326;50.794;6.060;2023-02-14T09:16:09;101392.41;;;7.45;88.21
26719;BME280;14326;50.794;6.060;2023-02-14T09:18:36;101388.78;;;7.43;89.55
26719;BME280;14326;50.794;6.060;2023-02-14T09:21:06;101384.41;;;7.43;90.30
26719;BME280;14326;50.794;6.060;2023-02-14T09:23:33;101382.66;;;7.44;93.56
26719;BME280;14326;50.794;6.060;2023-02-14T09:26:06;101386.81;;;7.38;93.92
26719;BME280;14326;50.794;6.060;2023-02-14T09:28:34;101386.00;;;7.39;93.29
26719;BME280;14326;50.794;6.060;2023-02-14T09:31:09;101382.34;;;7.37;94.22
26719;BME280;14326;50.794;6.060;2023-02-14T09:33:36;101376.22;;;7.38;94.74
26719;BME280;14326;50.794;6.060;2023-02-14T09:36:20;101379.97;;;7.42;95.16
26719;BME280;14326;50.794;6.060;2023-02-14T09:39:04;101369.50;;;7.45;95.41
26719;BME280;14326;50.794;6.060;2023-02-14T09:41:48;101378.56;;;7.50;96.41
26719;BME280;14326;50.794;6.060;2023-02-14T09:44:25;101374.38;;;7.54;96.48
26719;BME280;14326;50.794;6.060;2023-02-14T09:47:00;101372.47;;;7.51;96.66
26719;BME280;14326;50.794;6.060;2023-02-14T09:49:31;101366.78;;;7.61;98.09
26719;BME280;14326;50.794;6.060;2023-02-14T09:52:01;101364.81;;;7.75;97.37
26719;BME280;14326;50.794;6.060;2023-02-14T09:54:30;101355.84;;;7.91;95.79
26719;BME280;14326;50.794;6.060;2023-02-14T09:56:59;101360.28;;;8.09;95.95
26719;BME280;14326;50.794;6.060;2023-02-14T09:59:36;101352.81;;;8.20;96.47
26719;BME280;14326;50.794;6.060;2023-02-14T10:02:20;101349.81;;;8.30;95.70
26719;BME280;14326;50.794;6.060;2023-02-14T10:04:56;101354.75;;;8.42;95.15
26719;BME280;14326;50.794;6.060;2023-02-14T10:07:33;101345.31;;;8.48;95.19
26719;BME280;14326;50.794;6.060;2023-02-14T10:10:13;101344.94;;;8.60;94.06
26719;BME280;14326;50.794;6.060;2023-02-14T10:12:45;101343.56;;;8.68;92.75
26719;BME280;14326;50.794;6.060;2023-02-14T10:15:16;101343.00;;;8.75;93.39
26719;BME280;14326;50.794;6.060;2023-02-14T10:17:47;101339.78;;;8.82;92.53
26719;BME280;14326;50.794;6.060;2023-02-14T10:20:19;101336.41;;;8.86;91.06
26719;BME280;14326;50.794;6.060;2023-02-14T10:22:52;101333.44;;;8.99;90.75
26719;BME280;14326;50.794;6.060;2023-02-14T10:25:23;101337.56;;;9.14;87.31
26719;BME280;14326;50.794;6.060;2023-02-14T10:27:51;101331.88;;;9.25;86.88
26719;BME280;14326;50.794;6.060;2023-02-14T10:30:20;101327.72;;;9.32;87.48
26719;BME280;14326;50.794;6.060;2023-02-14T10:32:56;101329.94;;;9.42;87.21
26719;BME280;14326;50.794;6.060;2023-02-14T10:35:31;101316.91;;;9.48;87.48
26719;BME280;14326;50.794;6.060;2023-02-14T10:38:08;101324.25;;;9.55;87.17
26719;BME280;14326;50.794;6.060;2023-02-14T10:40:58;101319.16;;;9.60;86.09
26719;BME280;14326;50.794;6.060;2023-02-14T10:43:32;101321.50;;;9.74;84.71
26719;BME280;14326;50.794;6.060;2023-02-14T10:46:06;101314.66;;;10.03;82.20
26719;BME280;14326;50.794;6.060;2023-02-14T10:48:46;101318.00;;;10.20;80.61
26719;BME280;14326;50.794;6.060;2023-02-14T10:51:18;101319.94;;;10.24;81.19
26719;BME280;14326;50.794;6.060;2023-02-14T10:53:55;101315.41;;;10.21;78.87
26719;BME280;14326;50.794;6.060;2023-02-14T10:56:31;101312.69;;;10.20;77.84
26719;BME280;14326;50.794;6.060;2023-02-14T10:59:03;101309.75;;;10.14;79.39
26719;BME280;14326;50.794;6.060;2023-02-14T11:01:33;101307.25;;;10.17;76.88
26719;BME280;14326;50.794;6.060;2023-02-14T11:04:02;101305.16;;;10.32;73.33
26719;BME280;14326;50.794;6.060;2023-02-14T11:06:33;101296.34;;;10.57;71.75
26719;BME280;14326;50.794;6.060;2023-02-14T11:09:00;101299.94;;;10.83;68.20
26719;BME280;14326;50.794;6.060;2023-02-14T11:11:30;101290.34;;;11.13;64.50
26719;BME280;14326;50.794;6.060;2023-02-14T11:14:18;101287.53;;;11.35;64.40
26719;BME280;14326;50.794;6.060;2023-02-14T11:16:45;101282.28;;;11.38;62.77
26719;BME280;14326;50.794;6.060;2023-02-14T11:19:21;101276.75;;;11.32;64.89
26719;BME280;14326;50.794;6.060;2023-02-14T11:21:50;101280.25;;;11.31;63.10
26719;BME280;14326;50.794;6.060;2023-02-14T11:24:19;101280.66;;;11.43;63.85
26719;BME280;14326;50.794;6.060;2023-02-14T11:26:50;101269.72;;;11.34;64.80
26719;BME280;14326;50.794;6.060;2023-02-14T11:29:24;101274.78;;;11.27;63.92
26719;BME280;14326;50.794;6.060;2023-02-14T11:31:51;101268.34;;;11.20;63.61
26719;BME280;14326;50.794;6.060;2023-02-14T11:34:31;101270.09;;;11.18;64.87
26719;BME280;14326;50.794;6.060;2023-02-14T11:37:01;101261.91;;;11.14;65.74
26719;BME280;14326;50.794;6.060;2023-02-14T11:39:29;101260.28;;;11.17;63.84
26719;BME280;14326;50.794;6.060;2023-02-14T11:41:59;101259.44;;;11.18;64.61
26719;BME280;14326;50.794;6.060;2023-02-14T11:44:28;101259.72;;;11.27;63.52
26719;BME280;14326;50.794;6.060;2023-02-14T11:47:16;101252.22;;;11.42;64.29
26719;BME280;14326;50.794;6.060;2023-02-14T11:49:53;101244.56;;;11.53;64.71
26719;BME280;14326;50.794;6.060;2023-02-14T11:52:21;101244.91;;;11.64;62.00
26719;BME280;14326;50.794;6.060;2023-02-14T11:54:51;101228.47;;;11.77;59.88
26719;BME280;14326;50.794;6.060;2023-02-14T11:57:23;101232.28;;;11.86;59.90
26719;BME280;14326;50.794;6.060;2023-02-14T11:59:53;101232.59;;;11.97;60.23
26719;BME280;14326;50.794;6.060;2023-02-14T12:02:25;101228.59;;;12.11;56.57
26719;BME280;14326;50.794;6.060;2023-02-14T12:04:56;101224.47;;;12.22;56.76
26719;BME280;14326;50.794;6.060;2023-02-14T12:07:27;101222.03;;;12.31;56.23
26719;BME280;14326;50.794;6.060;2023-02-14T12:10:14;101217.25;;;12.51;56.77
26719;BME280;14326;50.794;6.060;2023-02-14T12:12:48;101216.13;;;12.76;54.56
26719;BME280;14326;50.794;6.060;2023-02-14T12:15:32;101215.19;;;12.74;54.48
26719;BME280;14326;50.794;6.060;2023-02-14T12:24:15;101195.56;;;13.08;51.24
26719;BME280;14326;50.794;6.060;2023-02-14T12:26:45;101200.19;;;13.13;51.14
26719;BME280;14326;50.794;6.060;2023-02-14T12:29:19;101184.34;;;13.21;50.13
26719;BME280;14326;50.794;6.060;2023-02-14T12:31:48;101182.84;;;13.34;49.95
26719;BME280;14326;50.794;6.060;2023-02-14T12:34:16;101176.94;;;13.47;51.71
26719;BME280;14326;50.794;6.060;2023-02-14T12:37:00;101182.56;;;13.59;50.54
26719;BME280;14326;50.794;6.060;2023-02-14T12:39:36;101173.81;;;13.68;49.81
26719;BME280;14326;50.794;6.060;2023-02-14T12:42:17;101180.19;;;13.74;49.94
26719;BME280;14326;50.794;6.060;2023-02-14T12:44:55;101175.16;;;13.88;50.72
26719;BME280;14326;50.794;6.060;2023-02-14T12:47:30;101177.91;;;13.92;50.49
26719;BME280;14326;50.794;6.060;2023-02-14T12:50:16;101161.00;;;13.93;50.59
26719;BME280;14326;50.794;6.060;2023-02-14T12:53:02;101159.25;;;13.96;50.68
26719;BME280;14326;50.794;6.060;2023-02-14T12:55:50;101152.28;;;14.04;49.86
26719;BME280;14326;50.794;6.060;2023-02-14T12:58:39;101147.94;;;14.10;49.48
26719;BME280;14326;50.794;6.060;2023-02-14T13:01:28;101140.72;;;14.06;48.72
26719;BME280;14326;50.794;6.060;2023-02-14T13:04:12;101137.13;;;14.04;49.53
26719;BME280;14326;50.794;6.060;2023-02-14T13:06:47;101137.28;;;14.12;48.23
26719;BME280;14326;50.794;6.060;2023-02-14T13:09:28;101135.50;;;14.14;47.96
26719;BME280;14326;50.794;6.060;2023-02-14T13:12:06;101131.22;;;14.22;48.10
26719;BME280;14326;50.794;6.060;2023-02-14T13:14:49;101111.75;;;14.32;48.52
26719;BME280;14326;50.794;6.060;2023-02-14T13:17:24;101114.50;;;14.35;48.64
26719;BME280;14326;50.794;6.060;2023-02-14T13:19:59;101103.13;;;14.45;48.81
26719;BME280;14326;50.794;6.060;2023-02-14T13:22:28;101110.22;;;14.43;56.79
26719;BME280;14326;50.794;6.060;2023-02-14T13:25:03;101108.25;;;14.34;60.45
26719;BME280;14326;50.794;6.060;2023-02-14T13:27:32;101108.78;;;14.15;61.85